Time;durP1;ratioP1;P1;durP2;ratioP2;P2;SDS_P1;SDS_P2;PMS_P1;PMS_P2;Temp;Humidity;BMP_temperature;BMP_pressure;BME280_temperature;BME280_humidity;BME280_pressure;Samples;Min_cycle;Max_cycle;Signal;HPM_P1;HPM_P2
2023/09/02 00:00:47;;;;;;;5.75;2.15;;;;;;;14.72;100.00;100563.41;5071196;28;20043;-80
2023/09/02 00:03:12;;;;;;;2.30;2.00;;;;;;;14.70;100.00;100570.75;5076741;28;20032;-80
2023/09/02 00:05:38;;;;;;;6.35;2.10;;;;;;;14.67;100.00;100590.53;5057686;28;20036;-80
2023/09/02 00:08:04;;;;;;;4.75;1.85;;;;;;;14.63;100.00;100591.88;5067570;28;20585;-80
2023/09/02 00:10:30;;;;;;;4.25;1.90;;;;;;;14.61;100.00;100596.50;5091787;28;20063;-80
2023/09/02 00:12:56;;;;;;;12.00;1.58;;;;;;;14.61;100.00;100604.50;5074530;28;20029;-80
2023/09/02 00:15:21;;;;;;;8.35;1.27;;;;;;;14.58;100.00;100605.66;5086553;28;20039;-79
2023/09/02 00:17:47;;;;;;;3.80;1.92;;;;;;;14.60;100.00;100606.34;5067009;28;20036;-80
2023/09/02 00:20:13;;;;;;;3.03;2.25;;;;;;;14.57;100.00;100613.81;5046836;28;20154;-80
2023/09/02 00:22:40;;;;;;;6.28;2.30;;;;;;;14.51;100.00;100624.13;5046219;28;20048;-80
2023/09/02 00:25:06;;;;;;;2.72;2.30;;;;;;;14.37;100.00;100620.28;4979700;28;20130;-80
2023/09/02 00:27:32;;;;;;;5.45;2.35;;;;;;;14.27;100.00;100620.44;5067182;28;20446;-80
2023/09/02 00:29:57;;;;;;;4.07;2.55;;;;;;;14.30;100.00;100629.09;5047184;28;20032;-80
2023/09/02 00:32:23;;;;;;;3.53;2.20;;;;;;;14.31;100.00;100631.59;5043098;28;20028;-80
2023/09/02 00:34:49;;;;;;;3.58;2.25;;;;;;;14.36;100.00;100625.78;5056237;28;20404;-80
2023/09/02 00:37:15;;;;;;;4.75;2.08;;;;;;;14.38;100.00;100634.44;5053358;28;20110;-80
2023/09/02 00:39:41;;;;;;;8.30;2.65;;;;;;;14.42;100.00;100626.94;5053392;28;20115;-80
2023/09/02 00:42:10;;;;;;;2.28;1.70;;;;;;;14.46;100.00;100631.75;5042821;28;20090;-80
2023/09/02 00:44:36;;;;;;;2.42;1.70;;;;;;;14.47;100.00;100620.13;5076954;28;20024;-80
2023/09/02 00:47:02;;;;;;;4.72;2.45;;;;;;;14.53;100.00;100629.25;5053882;28;20495;-80
2023/09/02 00:49:28;;;;;;;2.33;2.13;;;;;;;14.57;100.00;100627.13;5036693;28;20086;-80
2023/09/02 00:51:54;;;;;;;3.30;1.92;;;;;;;14.59;100.00;100631.25;5057165;28;20543;-80
2023/09/02 00:54:20;;;;;;;2.40;1.67;;;;;;;14.61;100.00;100631.09;5042151;28;20040;-80
2023/09/02 00:56:45;;;;;;;8.75;1.65;;;;;;;14.62;100.00;100630.94;5049721;28;20040;-80
2023/09/02 00:59:12;;;;;;;3.80;1.38;;;;;;;14.60;100.00;100630.28;5078236;28;20059;-80
2023/09/02 01:01:40;;;;;;;1.50;1.40;;;;;;;14.63;100.00;100637.09;5055192;28;20055;-80
2023/09/02 01:04:06;;;;;;;2.28;1.75;;;;;;;14.60;100.00;100642.75;5075050;28;20039;-79
2023/09/02 01:06:34;;;;;;;2.60;1.80;;;;;;;14.62;100.00;100648.75;5073506;28;20491;-80
2023/09/02 01:09:00;;;;;;;3.03;1.95;;;;;;;14.62;100.00;100641.56;5079526;28;20107;-80
2023/09/02 01:11:26;;;;;;;3.95;2.20;;;;;;;14.64;100.00;100647.56;5066522;28;20032;-80
2023/09/02 01:13:52;;;;;;;4.50;2.08;;;;;;;14.66;100.00;100644.72;5082222;28;20539;-79
2023/09/02 01:16:18;;;;;;;1.83;1.60;;;;;;;14.64;100.00;100652.03;5017736;28;20063;-80
2023/09/02 01:18:44;;;;;;;2.70;2.00;;;;;;;14.64;100.00;100655.53;5043076;28;20366;-80
2023/09/02 01:21:30;;;;;;;5.75;1.90;;;;;;;14.62;100.00;100654.06;5075186;28;20423;-80
2023/09/02 01:24:29;;;;;;;7.78;1.95;;;;;;;14.56;100.00;100652.88;5045736;28;20041;-80
2023/09/02 01:27:22;;;;;;;24.63;3.78;;;;;;;14.45;100.00;100646.06;5068710;28;20105;-80
2023/09/02 01:30:12;;;;;;;4.40;2.22;;;;;;;14.41;100.00;100660.69;5040385;28;20064;-80
2023/09/02 01:32:43;;;;;;;9.80;1.77;;;;;;;14.33;100.00;100653.53;5040427;28;20029;-80
2023/09/02 01:35:15;;;;;;;116.68;3.15;;;;;;;14.24;100.00;100665.13;5030824;28;20045;-81
2023/09/02 01:37:42;;;;;;;214.77;4.45;;;;;;;14.15;100.00;100669.59;5012974;28;20396;-80
2023/09/02 01:40:11;;;;;;;112.88;2.20;;;;;;;14.09;100.00;100665.78;4969857;28;20055;-80
2023/09/02 01:42:38;;;;;;;42.33;5.63;;;;;;;14.05;100.00;100669.75;5068520;28;21418;-80
2023/09/02 01:45:05;;;;;;;27.20;7.75;;;;;;;14.06;100.00;100679.41;5070277;28;20567;-80
2023/09/02 01:47:31;;;;;;;193.57;12.32;;;;;;;14.03;100.00;100666.41;5069709;28;20476;-81
2023/09/02 01:49:58;;;;;;;95.30;6.38;;;;;;;14.01;100.00;100657.78;5055498;28;20044;-80
2023/09/02 01:52:24;;;;;;;65.78;4.43;;;;;;;13.99;100.00;100659.75;5069952;28;20032;-80
2023/09/02 01:54:50;;;;;;;114.32;4.72;;;;;;;13.98;100.00;100656.25;5051521;28;20403;-80
2023/09/02 01:57:16;;;;;;;41.78;2.55;;;;;;;13.96;100.00;100663.56;5037115;28;20419;-80
2023/09/02 01:59:43;;;;;;;44.40;3.15;;;;;;;13.98;100.00;100660.75;5048801;28;20063;-80
2023/09/02 02:02:08;;;;;;;57.85;2.63;;;;;;;13.95;100.00;100664.56;5052729;28;20039;-80
2023/09/02 02:04:38;;;;;;;86.00;2.47;;;;;;;13.97;100.00;100662.56;5052213;28;20115;-80
2023/09/02 02:07:09;;;;;;;91.90;2.15;;;;;;;13.94;100.00;100667.38;5052421;28;20499;-80
2023/09/02 02:09:48;;;;;;;57.88;1.67;;;;;;;13.88;100.00;100661.72;5068191;28;20036;-80
2023/09/02 02:12:14;;;;;;;13.50;0.70;;;;;;;13.85;100.00;100669.19;5052464;28;20025;-80
2023/09/02 02:14:40;;;;;;;65.05;1.60;;;;;;;13.84;100.00;100668.34;5069477;28;20111;-80
2023/09/02 02:17:07;;;;;;;50.30;1.15;;;;;;;13.80;100.00;100667.00;5069364;28;20032;-80
2023/09/02 02:19:33;;;;;;;21.17;0.70;;;;;;;13.80;100.00;100658.19;5039126;28;20048;-80
2023/09/02 02:22:00;;;;;;;0.95;0.32;;;;;;;13.79;100.00;100662.69;5052586;28;20041;-80
2023/09/02 02:24:25;;;;;;;6.88;0.77;;;;;;;13.81;100.00;100668.66;5079192;28;20117;-80
2023/09/02 02:26:51;;;;;;;50.17;1.67;;;;;;;13.79;100.00;100657.38;5052439;28;20040;-80
2023/09/02 02:29:17;;;;;;;54.17;1.35;;;;;;;13.75;100.00;100666.66;5051037;28;20040;-80
2023/09/02 02:31:43;;;;;;;69.63;1.30;;;;;;;13.70;100.00;100663.63;5052821;28;20033;-80
2023/09/02 02:34:09;;;;;;;98.03;1.67;;;;;;;13.59;100.00;100668.25;5047634;28;20050;-80
2023/09/02 02:36:35;;;;;;;18.73;0.45;;;;;;;13.54;100.00;100669.72;5069148;28;20487;-79
2023/09/02 02:39:03;;;;;;;95.78;2.10;;;;;;;13.54;100.00;100683.00;5069419;28;20037;-80
2023/09/02 02:41:28;;;;;;;142.27;2.95;;;;;;;13.52;100.00;100685.81;5067970;28;20032;-80
2023/09/02 02:43:54;;;;;;;172.73;3.08;;;;;;;13.48;100.00;100682.59;5064498;28;20036;-80
2023/09/02 02:46:20;;;;;;;99.80;2.67;;;;;;;13.50;100.00;100688.63;5056437;28;20021;-80
2023/09/02 02:48:46;;;;;;;18.30;1.60;;;;;;;13.52;100.00;100691.94;5046291;28;20111;-80
2023/09/02 02:51:12;;;;;;;5.35;1.27;;;;;;;13.57;100.00;100695.97;5042885;28;20404;-80
2023/09/02 02:53:38;;;;;;;6.53;1.30;;;;;;;13.61;100.00;100692.84;5043161;28;20123;-79
2023/09/02 02:56:04;;;;;;;21.30;1.50;;;;;;;13.63;100.00;100679.38;5052494;28;20039;-80
2023/09/02 02:58:32;;;;;;;2.72;1.40;;;;;;;13.70;100.00;100690.19;5069465;28;20036;-80
2023/09/02 03:01:07;;;;;;;1.33;1.23;;;;;;;13.76;100.00;100686.94;5052895;28;20388;-79
2023/09/02 03:03:33;;;;;;;1.88;1.15;;;;;;;13.76;100.00;100689.59;5067253;28;20044;-80
2023/09/02 03:06:00;;;;;;;3.78;1.27;;;;;;;13.80;100.00;100698.03;5071498;28;20058;-79
2023/09/02 03:08:26;;;;;;;8.02;1.65;;;;;;;13.83;100.00;100701.22;5056520;28;20491;-80
2023/09/02 03:11:00;;;;;;;2.88;1.38;;;;;;;13.82;100.00;100696.91;5045932;28;20543;-79
2023/09/02 03:13:30;;;;;;;4.07;1.45;;;;;;;13.77;100.00;100701.88;5073046;28;20040;-79
2023/09/02 03:15:57;;;;;;;3.90;1.33;;;;;;;13.72;100.00;100696.19;5032070;28;20052;-79
2023/09/02 03:18:24;;;;;;;1.20;1.00;;;;;;;13.72;100.00;100707.66;5039727;28;20037;-79
2023/09/02 03:20:50;;;;;;;1.60;0.93;;;;;;;13.76;100.00;100705.53;5073852;28;20036;-79
2023/09/02 03:23:16;;;;;;;1.38;1.27;;;;;;;13.75;100.00;100703.84;5039634;28;20423;-79
2023/09/02 03:25:42;;;;;;;4.85;1.48;;;;;;;13.77;100.00;100707.19;5073116;28;20044;-79
2023/09/02 03:28:09;;;;;;;2.65;1.33;;;;;;;13.73;100.00;100704.00;5052362;28;20039;-79
2023/09/02 03:30:35;;;;;;;3.45;1.23;;;;;;;13.65;100.00;100717.22;5062555;28;20041;-80
2023/09/02 03:33:02;;;;;;;6.00;1.48;;;;;;;13.68;100.00;100722.22;5039383;28;20044;-79
2023/09/02 03:35:27;;;;;;;5.40;1.80;;;;;;;13.66;100.00;100716.25;5054194;28;20382;-79
2023/09/02 03:37:53;;;;;;;3.55;1.27;;;;;;;13.66;100.00;100716.25;5071996;28;20087;-80
2023/09/02 03:40:19;;;;;;;3.00;1.48;;;;;;;13.63;100.00;100714.72;5061660;28;20032;-79
2023/09/02 03:42:45;;;;;;;1.98;1.40;;;;;;;13.63;100.00;100720.03;5038413;28;20047;-79
2023/09/02 03:45:10;;;;;;;3.55;1.10;;;;;;;13.58;100.00;100718.88;5072144;28;20037;-80
2023/09/02 03:47:37;;;;;;;2.17;1.05;;;;;;;13.57;100.00;100725.19;5052488;28;20988;-80
2023/09/02 03:50:05;;;;;;;5.45;0.77;;;;;;;13.54;100.00;100726.31;5038284;28;20028;-80
2023/09/02 03:52:32;;;;;;;1.90;1.08;;;;;;;13.55;100.00;100728.00;5055283;28;20047;-80
2023/09/02 03:54:58;;;;;;;4.28;1.67;;;;;;;13.47;100.00;100726.06;5070622;28;20090;-80
2023/09/02 03:57:25;;;;;;;2.13;1.38;;;;;;;13.40;100.00;100733.00;5055877;28;20080;-79
2023/09/02 03:59:50;;;;;;;2.40;1.95;;;;;;;13.34;100.00;100737.13;5051751;28;20037;-80
2023/09/02 04:02:17;;;;;;;7.80;1.40;;;;;;;13.31;100.00;100741.91;5073377;28;20059;-80
2023/09/02 04:04:43;;;;;;;25.90;2.00;;;;;;;13.24;100.00;100749.63;5070441;28;20404;-80
2023/09/02 04:07:08;;;;;;;21.35;2.35;;;;;;;13.19;100.00;100746.59;5053553;28;20067;-80
2023/09/02 04:09:34;;;;;;;33.63;2.80;;;;;;;13.20;100.00;100748.28;5067137;28;20039;-79
2023/09/02 04:12:00;;;;;;;16.60;2.47;;;;;;;13.16;100.00;100747.75;5065177;28;20033;-79
2023/09/02 04:14:26;;;;;;;8.05;2.00;;;;;;;13.11;100.00;100760.66;5070319;28;20469;-79
2023/09/02 04:16:53;;;;;;;75.65;3.13;;;;;;;13.06;100.00;100765.59;5052985;28;20048;-80
2023/09/02 04:19:22;;;;;;;43.10;2.58;;;;;;;12.99;100.00;100762.72;5037145;28;20391;-80
2023/09/02 04:21:49;;;;;;;13.07;2.00;;;;;;;12.92;100.00;100772.25;5038506;28;20435;-80
2023/09/02 04:24:15;;;;;;;12.80;1.73;;;;;;;12.89;100.00;100779.56;5053449;28;20043;-79
2023/09/02 04:26:41;;;;;;;13.70;1.60;;;;;;;12.81;100.00;100778.63;5069189;28;20032;-80
2023/09/02 04:29:06;;;;;;;12.70;1.90;;;;;;;12.74;100.00;100781.06;5075164;28;20496;-79
2023/09/02 04:31:32;;;;;;;24.80;2.10;;;;;;;12.74;100.00;100789.84;5069387;28;20048;-79
2023/09/02 04:33:58;;;;;;;9.63;1.95;;;;;;;12.78;100.00;100785.06;5067609;28;20140;-79
2023/09/02 04:36:24;;;;;;;3.50;1.92;;;;;;;12.90;100.00;100797.13;5018143;28;20028;-79
2023/09/02 04:38:52;;;;;;;8.43;1.90;;;;;;;12.96;100.00;100793.06;5039745;28;20033;-79
2023/09/02 04:41:19;;;;;;;7.03;1.77;;;;;;;13.00;100.00;100793.56;5038117;28;20037;-79
2023/09/02 04:43:46;;;;;;;2.78;1.60;;;;;;;13.05;100.00;100798.41;5033412;28;20036;-79
2023/09/02 04:46:13;;;;;;;11.07;1.80;;;;;;;13.05;100.00;100801.91;5027303;28;20060;-79
2023/09/02 04:48:42;;;;;;;8.07;2.33;;;;;;;13.01;100.00;100797.91;5048385;28;20136;-79
2023/09/02 04:51:09;;;;;;;14.00;2.40;;;;;;;12.98;100.00;100801.66;5036310;28;20470;-79
2023/09/02 04:53:36;;;;;;;12.23;2.42;;;;;;;13.00;100.00;100805.00;5066874;28;20059;-79
2023/09/02 04:56:04;;;;;;;32.08;2.55;;;;;;;13.04;100.00;100810.88;5051506;28;20449;-79
2023/09/02 04:58:31;;;;;;;65.70;2.95;;;;;;;13.02;100.00;100821.63;5025696;28;20115;-79
2023/09/02 05:01:10;;;;;;;29.00;2.90;;;;;;;13.06;100.00;100821.31;5035611;28;20135;-79
2023/09/02 05:03:38;;;;;;;71.40;3.33;;;;;;;13.05;100.00;100827.59;5044635;28;20037;-79
2023/09/02 05:06:05;;;;;;;109.63;3.95;;;;;;;13.05;100.00;100835.56;5043654;28;20036;-79
2023/09/02 05:08:34;;;;;;;172.75;4.70;;;;;;;12.96;100.00;100835.50;5022933;28;20045;-79
2023/09/02 05:11:00;;;;;;;49.72;3.20;;;;;;;12.92;100.00;100839.41;5035742;28;20028;-79
2023/09/02 05:13:26;;;;;;;93.32;3.85;;;;;;;12.93;100.00;100838.47;5013890;28;20048;-79
2023/09/02 05:15:52;;;;;;;17.73;3.08;;;;;;;12.95;100.00;100840.97;5052515;28;20127;-79
2023/09/02 05:18:18;;;;;;;12.05;2.60;;;;;;;13.02;100.00;100844.66;5067396;28;20443;-79
2023/09/02 05:20:44;;;;;;;27.40;3.00;;;;;;;13.09;100.00;100847.56;5032256;28;20033;-79
2023/09/02 05:23:12;;;;;;;19.17;3.22;;;;;;;13.17;100.00;100844.16;5028614;28;20033;-79
2023/09/02 05:25:39;;;;;;;29.27;3.35;;;;;;;13.18;100.00;100845.81;5031651;28;20033;-80
2023/09/02 05:28:05;;;;;;;97.00;4.63;;;;;;;13.19;100.00;100863.38;5041965;28;20407;-79
2023/09/02 05:30:35;;;;;;;76.50;3.97;;;;;;;13.14;100.00;100863.84;5011224;28;20036;-79
2023/09/02 05:33:01;;;;;;;113.93;4.43;;;;;;;13.14;100.00;100866.50;5039906;28;20441;-79
2023/09/02 05:35:27;;;;;;;31.05;3.70;;;;;;;13.12;100.00;100865.84;5043241;28;21377;-79
2023/09/02 05:37:53;;;;;;;23.02;3.25;;;;;;;13.09;100.00;100874.91;5056749;28;20033;-79
2023/09/02 05:40:18;;;;;;;78.15;3.80;;;;;;;13.03;100.00;100870.22;5047140;28;20045;-79
2023/09/02 05:42:44;;;;;;;24.52;2.97;;;;;;;12.99;100.00;100880.31;5052779;28;20396;-79
2023/09/02 05:45:10;;;;;;;87.80;3.83;;;;;;;12.94;100.00;100877.25;5058881;28;20079;-80
2023/09/02 05:47:36;;;;;;;51.53;3.55;;;;;;;12.90;100.00;100891.78;5021564;28;20381;-80
2023/09/02 05:50:02;;;;;;;59.35;3.15;;;;;;;12.82;100.00;100884.56;5047914;28;20566;-79
2023/09/02 05:52:28;;;;;;;32.17;2.75;;;;;;;12.77;100.00;100882.38;5035496;28;20029;-79
2023/09/02 05:54:53;;;;;;;96.85;4.03;;;;;;;12.74;100.00;100882.66;5047491;28;20031;-80
2023/09/02 05:57:19;;;;;;;28.17;3.45;;;;;;;12.74;100.00;100889.81;5050870;28;20029;-79
2023/09/02 05:59:45;;;;;;;25.90;3.05;;;;;;;12.76;100.00;100891.31;5025999;28;20036;-79
2023/09/02 06:02:10;;;;;;;36.22;3.25;;;;;;;12.77;100.00;100894.81;5028810;28;20037;-80
2023/09/02 06:04:36;;;;;;;69.18;3.70;;;;;;;12.70;100.00;100896.38;5015415;28;20176;-79
2023/09/02 06:07:02;;;;;;;95.03;4.50;;;;;;;12.65;100.00;100905.63;5032607;28;20045;-79
2023/09/02 06:09:29;;;;;;;49.45;3.40;;;;;;;12.65;100.00;100910.91;5043496;28;20038;-79
2023/09/02 06:11:55;;;;;;;41.92;4.10;;;;;;;12.64;100.00;100911.06;5033597;28;21128;-79
2023/09/02 06:14:21;;;;;;;125.53;4.90;;;;;;;12.61;100.00;100908.72;5054278;28;20039;-79
2023/09/02 06:16:46;;;;;;;118.10;4.78;;;;;;;12.50;100.00;100920.34;5050868;28;20044;-80
2023/09/02 06:19:12;;;;;;;91.40;4.85;;;;;;;12.55;100.00;100914.59;5060713;28;20029;-79
2023/09/02 06:21:38;;;;;;;83.65;3.70;;;;;;;12.62;100.00;100921.81;5037302;28;20033;-79
2023/09/02 06:24:05;;;;;;;18.52;2.95;;;;;;;12.72;100.00;100919.13;5047041;28;20029;-79
2023/09/02 06:26:31;;;;;;;64.53;3.92;;;;;;;12.77;100.00;100922.16;5049591;28;20041;-79
2023/09/02 06:28:57;;;;;;;76.88;4.00;;;;;;;12.80;100.00;100922.84;5048058;28;20029;-79
2023/09/02 06:31:23;;;;;;;41.25;3.65;;;;;;;12.79;100.00;100916.69;5042055;28;20029;-79
2023/09/02 06:33:49;;;;;;;46.25;4.07;;;;;;;12.90;100.00;100920.97;5029728;28;20033;-80
2023/09/02 06:36:19;;;;;;;24.70;3.08;;;;;;;12.98;100.00;100923.72;5043238;28;20127;-79
2023/09/02 06:38:46;;;;;;;21.90;3.20;;;;;;;13.03;100.00;100918.81;5031080;28;20032;-79
2023/09/02 06:41:16;;;;;;;22.30;3.13;;;;;;;13.12;100.00;100919.72;5045191;28;20043;-79
2023/09/02 06:43:43;;;;;;;35.83;3.78;;;;;;;13.14;100.00;100919.59;5038848;28;20042;-79
2023/09/02 06:46:13;;;;;;;12.30;3.33;;;;;;;13.14;100.00;100920.44;5056882;28;20036;-79
2023/09/02 06:48:39;;;;;;;19.63;3.30;;;;;;;13.17;100.00;100929.09;5052937;28;20036;-79
2023/09/02 06:51:05;;;;;;;11.35;3.42;;;;;;;13.18;100.00;100936.06;5038046;28;20040;-79
2023/09/02 06:53:31;;;;;;;22.02;3.40;;;;;;;13.21;100.00;100944.56;5035951;28;20048;-79
2023/09/02 06:55:57;;;;;;;33.80;3.30;;;;;;;13.17;100.00;100943.16;5043050;28;20123;-79
2023/09/02 06:58:22;;;;;;;15.85;3.80;;;;;;;13.15;100.00;100945.97;5036872;28;20037;-79
2023/09/02 07:00:48;;;;;;;15.98;3.15;;;;;;;13.21;100.00;100955.19;5057637;28;20029;-79
2023/09/02 07:03:14;;;;;;;15.85;3.75;;;;;;;13.30;100.00;100956.09;5041823;28;20029;-79
2023/09/02 07:05:40;;;;;;;4.00;3.30;;;;;;;13.41;100.00;100960.34;5031154;28;20043;-80
2023/09/02 07:08:06;;;;;;;24.80;2.97;;;;;;;13.52;100.00;100968.13;5057451;28;20037;-79
2023/09/02 07:10:31;;;;;;;7.28;2.58;;;;;;;13.58;100.00;100963.22;5053121;28;20044;-79
2023/09/02 07:12:57;;;;;;;29.92;3.13;;;;;;;13.62;100.00;100967.22;5053361;28;20025;-79
2023/09/02 07:15:23;;;;;;;6.10;2.85;;;;;;;13.70;100.00;100974.44;5035223;28;20064;-80
2023/09/02 07:17:48;;;;;;;12.40;2.60;;;;;;;13.77;100.00;100976.34;5053612;28;20525;-80
2023/09/02 07:20:14;;;;;;;11.25;2.53;;;;;;;13.83;100.00;100971.38;5053549;28;20033;-80
2023/09/02 07:22:40;;;;;;;4.95;1.92;;;;;;;13.91;100.00;100970.63;5054499;28;20036;-80
2023/09/02 07:25:06;;;;;;;10.45;2.83;;;;;;;13.95;100.00;100978.13;5054647;28;20036;-80
2023/09/02 07:27:32;;;;;;;5.97;1.70;;;;;;;14.01;100.00;100974.84;5054291;28;20040;-80
2023/09/02 07:30:01;;;;;;;6.03;2.10;;;;;;;14.08;100.00;100979.59;5045491;28;20747;-80
2023/09/02 07:32:27;;;;;;;6.35;1.80;;;;;;;14.07;100.00;100985.88;5034607;28;20409;-80
2023/09/02 07:34:53;;;;;;;4.22;1.90;;;;;;;14.02;100.00;100989.00;5065111;28;20040;-80
2023/09/02 07:37:18;;;;;;;1.48;1.38;;;;;;;13.99;100.00;100990.16;5063974;28;20031;-80
2023/09/02 07:39:44;;;;;;;1.38;1.27;;;;;;;14.05;100.00;100998.50;5065938;28;20036;-79
2023/09/02 07:42:10;;;;;;;2.17;1.85;;;;;;;14.11;100.00;100998.69;5047877;28;20036;-79
2023/09/02 07:44:35;;;;;;;1.60;1.50;;;;;;;14.19;100.00;101010.41;5074904;28;20119;-80
2023/09/02 07:47:01;;;;;;;8.98;1.40;;;;;;;14.23;100.00;101004.63;5059562;28;20098;-79
2023/09/02 07:49:27;;;;;;;15.90;1.80;;;;;;;14.24;100.00;101010.75;5036047;28;20427;-80
2023/09/02 07:51:52;;;;;;;2.03;1.40;;;;;;;14.16;100.00;101011.53;5089150;28;20505;-80
2023/09/02 07:54:18;;;;;;;16.17;1.50;;;;;;;14.12;100.00;101012.84;5049660;28;20039;-79
2023/09/02 07:56:44;;;;;;;1.83;1.40;;;;;;;14.07;100.00;101007.97;5063987;28;20032;-79
2023/09/02 07:59:09;;;;;;;2.47;1.73;;;;;;;14.04;100.00;101015.41;5071386;28;20035;-79
2023/09/02 08:01:35;;;;;;;2.78;1.60;;;;;;;14.10;100.00;101018.31;5073529;28;20426;-79
2023/09/02 08:04:01;;;;;;;8.50;1.75;;;;;;;14.16;100.00;101022.16;5059431;28;20908;-79
2023/09/02 08:06:26;;;;;;;3.65;1.73;;;;;;;14.25;100.00;101015.91;5049480;28;20029;-80
2023/09/02 08:08:53;;;;;;;2.28;1.58;;;;;;;14.30;100.00;101023.44;5047846;28;20392;-80
2023/09/02 08:11:19;;;;;;;3.78;1.88;;;;;;;14.34;100.00;101019.50;5051695;28;20023;-80
2023/09/02 08:13:45;;;;;;;9.20;1.77;;;;;;;14.37;100.00;101023.66;5077716;28;20040;-80
2023/09/02 08:16:10;;;;;;;22.80;2.08;;;;;;;14.30;100.00;101023.44;5084623;28;20055;-80
2023/09/02 08:18:36;;;;;;;2.83;2.08;;;;;;;14.25;100.00;101031.06;5071418;28;20043;-80
2023/09/02 08:21:09;;;;;;;9.27;2.15;;;;;;;14.35;100.00;101030.97;5082321;28;20036;-80
2023/09/02 08:23:38;;;;;;;2.47;1.88;;;;;;;14.38;100.00;101042.09;5053755;28;20033;-80
2023/09/02 08:26:12;;;;;;;5.38;1.48;;;;;;;14.49;100.00;101041.03;5062510;28;20034;-80
2023/09/02 08:28:42;;;;;;;1.55;1.45;;;;;;;14.48;100.00;101039.38;5076406;28;20052;-80
2023/09/02 08:31:11;;;;;;;3.03;1.95;;;;;;;14.56;100.00;101051.03;5077017;28;20032;-80
2023/09/02 08:33:37;;;;;;;1.92;1.65;;;;;;;14.58;100.00;101043.75;5051970;28;20044;-80
2023/09/02 08:36:03;;;;;;;20.50;2.10;;;;;;;14.58;100.00;101054.38;5062466;28;20036;-80
2023/09/02 08:38:29;;;;;;;1.92;1.80;;;;;;;14.51;100.00;101065.66;5048075;28;20060;-80
2023/09/02 08:40:57;;;;;;;19.85;2.17;;;;;;;14.57;100.00;101066.84;5033012;28;20041;-80
2023/09/02 08:43:25;;;;;;;9.15;2.20;;;;;;;14.62;100.00;101074.38;5048036;28;20064;-80
2023/09/02 08:45:53;;;;;;;67.07;3.28;;;;;;;14.60;100.00;101071.88;5055322;28;20041;-80
2023/09/02 08:48:23;;;;;;;1.85;1.75;;;;;;;14.64;100.00;101081.22;5024838;28;20103;-80
2023/09/02 08:50:51;;;;;;;1.70;1.60;;;;;;;14.70;100.00;101070.94;5045488;28;20727;-80
2023/09/02 08:53:19;;;;;;;8.10;1.70;;;;;;;14.69;100.00;101071.91;5038512;28;20036;-80
2023/09/02 08:55:48;;;;;;;2.80;1.73;;;;;;;14.74;100.00;101078.47;5052649;28;20546;-80
2023/09/02 08:58:14;;;;;;;3.17;1.65;;;;;;;14.81;100.00;101083.19;5055170;28;20094;-80
2023/09/02 09:00:41;;;;;;;10.10;2.10;;;;;;;14.85;100.00;101087.19;5039764;28;20036;-80
2023/09/02 09:03:11;;;;;;;3.63;1.70;;;;;;;14.88;100.00;101074.41;5053329;28;20039;-80
2023/09/02 09:05:42;;;;;;;9.70;1.80;;;;;;;14.94;100.00;101077.44;5046902;28;20396;-80
2023/09/02 09:08:10;;;;;;;3.05;1.90;;;;;;;14.93;100.00;101067.75;5033276;28;20063;-80
2023/09/02 09:10:36;;;;;;;19.35;2.75;;;;;;;14.96;100.00;101078.09;5032661;28;20039;-80
2023/09/02 09:13:09;;;;;;;58.10;3.17;;;;;;;14.97;100.00;101074.47;5041489;28;20044;-80
2023/09/02 09:15:35;;;;;;;6.68;1.90;;;;;;;14.97;100.00;101071.81;5053857;28;20048;-80
2023/09/02 09:18:03;;;;;;;51.53;2.83;;;;;;;15.01;100.00;101081.13;5033129;28;20066;-80
2023/09/02 09:20:30;;;;;;;4.22;2.10;;;;;;;15.00;100.00;101077.63;5044225;28;20563;-80
2023/09/02 09:22:56;;;;;;;33.03;2.20;;;;;;;15.02;100.00;101079.31;5032251;28;20037;-80
2023/09/02 09:25:22;;;;;;;17.25;2.33;;;;;;;15.05;100.00;101082.47;5021690;28;21001;-80
2023/09/02 09:27:50;;;;;;;6.18;2.08;;;;;;;15.16;100.00;101091.19;5069474;28;20032;-80
2023/09/02 09:30:34;;;;;;;2.42;1.90;;;;;;;15.25;100.00;101098.22;5007212;28;20033;-80
2023/09/02 09:33:01;;;;;;;2.53;2.05;;;;;;;15.29;100.00;101091.56;5029418;28;20040;-80
2023/09/02 09:35:27;;;;;;;14.10;2.40;;;;;;;15.36;100.00;101094.44;5036410;28;20101;-80
2023/09/02 09:37:54;;;;;;;17.23;2.28;;;;;;;15.37;100.00;101088.09;5069569;28;20067;-80
2023/09/02 09:40:31;;;;;;;2.75;2.22;;;;;;;15.41;100.00;101101.94;5053565;28;20040;-80
2023/09/02 09:43:02;;;;;;;2.58;2.38;;;;;;;15.53;100.00;101098.00;5037387;28;20064;-80
2023/09/02 09:45:29;;;;;;;20.90;2.92;;;;;;;15.57;100.00;101091.38;5041282;28;20090;-80
2023/09/02 09:48:08;;;;;;;3.22;2.90;;;;;;;15.59;100.00;101096.53;5084444;28;20043;-80
2023/09/02 09:50:34;;;;;;;4.45;2.20;;;;;;;15.55;100.00;101100.50;5070907;28;20047;-80
2023/09/02 09:53:09;;;;;;;3.70;2.33;;;;;;;15.59;100.00;101099.19;5040180;28;20028;-80
2023/09/02 09:55:36;;;;;;;2.63;2.38;;;;;;;15.61;100.00;101098.03;5056138;28;20440;-80
2023/09/02 09:58:03;;;;;;;2.63;2.15;;;;;;;15.70;100.00;101101.53;5045258;28;20070;-80
2023/09/02 10:00:30;;;;;;;4.07;2.70;;;;;;;15.75;100.00;101101.91;5045248;28;20055;-80
2023/09/02 10:02:59;;;;;;;2.83;2.22;;;;;;;15.84;100.00;101100.09;5042049;28;20029;-80
2023/09/02 10:05:28;;;;;;;5.68;2.22;;;;;;;15.90;100.00;101105.75;5062383;28;20373;-81
2023/09/02 10:08:12;;;;;;;3.40;2.85;;;;;;;15.98;100.00;101108.47;5068187;28;20081;-81
2023/09/02 10:10:38;;;;;;;4.88;3.22;;;;;;;15.94;100.00;101110.59;5043623;28;20032;-80
2023/09/02 10:13:05;;;;;;;6.05;3.55;;;;;;;15.96;100.00;101116.59;5030624;28;20595;-80
2023/09/02 10:15:31;;;;;;;4.18;2.75;;;;;;;16.00;100.00;101111.81;5048717;28;20060;-81
2023/09/02 10:17:59;;;;;;;3.50;3.05;;;;;;;16.04;100.00;101129.16;5035332;28;20079;-81
2023/09/02 10:20:27;;;;;;;3.50;2.97;;;;;;;16.12;100.00;101129.16;5051423;28;20036;-81
2023/09/02 10:22:54;;;;;;;2.78;2.42;;;;;;;16.14;100.00;101131.69;5053071;28;20078;-81
2023/09/02 10:25:24;;;;;;;4.68;2.47;;;;;;;16.21;100.00;101129.19;5032625;28;20396;-80
2023/09/02 10:28:03;;;;;;;2.67;1.98;;;;;;;16.21;100.00;101137.19;5045049;28;20032;-81
2023/09/02 10:30:49;;;;;;;3.38;2.17;;;;;;;16.23;100.00;101135.19;5046296;28;20037;-81
2023/09/02 10:33:24;;;;;;;2.90;1.70;;;;;;;16.29;100.00;101144.38;5062162;28;20131;-81
2023/09/02 10:35:57;;;;;;;3.50;2.20;;;;;;;16.34;100.00;101142.03;5044280;28;20711;-81
2023/09/02 10:38:26;;;;;;;3.17;1.92;;;;;;;16.38;100.00;101154.03;5041025;28;20048;-81
2023/09/02 10:40:59;;;;;;;2.53;2.33;;;;;;;16.51;100.00;101152.72;5017729;28;20037;-81
2023/09/02 10:43:24;;;;;;;4.40;2.50;;;;;;;16.49;100.00;101147.53;5045041;28;20040;-81
2023/09/02 10:45:50;;;;;;;3.05;2.03;;;;;;;16.49;100.00;101140.38;5028542;28;20023;-81
2023/09/02 10:48:17;;;;;;;4.47;2.10;;;;;;;16.51;100.00;101142.88;5035727;28;20112;-81
2023/09/02 10:50:43;;;;;;;4.32;2.58;;;;;;;16.49;100.00;101144.88;5044455;28;20040;-81
2023/09/02 10:53:09;;;;;;;2.67;2.45;;;;;;;16.54;100.00;101147.03;5037694;28;20369;-81
2023/09/02 10:55:59;;;;;;;3.63;2.75;;;;;;;16.57;100.00;101150.22;5073243;28;20058;-81
2023/09/02 10:58:24;;;;;;;2.20;2.00;;;;;;;16.60;100.00;101159.72;5067286;28;20044;-81
2023/09/02 11:00:52;;;;;;;2.53;2.33;;;;;;;16.66;100.00;101155.56;5058251;28;20545;-81
2023/09/02 11:03:47;;;;;;;2.60;2.35;;;;;;;16.73;100.00;101164.56;5025080;28;20037;-81
2023/09/02 11:06:15;;;;;;;2.45;2.22;;;;;;;16.70;100.00;101162.22;5025632;28;20040;-82
2023/09/02 11:08:48;;;;;;;2.97;2.40;;;;;;;16.77;100.00;101159.72;5033683;28;20040;-81
2023/09/02 11:11:15;;;;;;;2.45;1.95;;;;;;;16.88;100.00;101167.41;5020645;28;20829;-81
2023/09/02 11:14:06;;;;;;;4.30;1.98;;;;;;;17.05;100.00;101167.38;5055923;28;20037;-81
2023/09/02 11:16:32;;;;;;;3.53;2.13;;;;;;;17.06;100.00;101155.66;5029208;28;20044;-81